sensor_id;sensor_type;location;lat;lon;timestamp;P1;P2;P0
85042;PMS7003;75372;51.206;16.144;2024-02-26T00:00:24;81.75;65.25;39.50
85042;PMS7003;75372;51.206;16.144;2024-02-26T00:01:55;81.50;67.00;39.50
85042;PMS7003;75372;51.206;16.144;2024-02-26T00:03:25;78.50;63.75;39.25
85042;PMS7003;75372;51.206;16.144;2024-02-26T00:04:55;78.25;63.00;39.25
85042;PMS7003;75372;51.206;16.144;2024-02-26T00:06:25;92.25;71.25;42.00
85042;PMS7003;75372;51.206;16.144;2024-02-26T00:07:55;84.50;65.50;40.50
85042;PMS7003;75372;51.206;16.144;2024-02-26T00:09:26;80.75;65.00;39.75
85042;PMS7003;75372;51.206;16.144;2024-02-26T00:10:56;86.00;67.50;42.50
85042;PMS7003;75372;51.206;16.144;2024-02-26T00:12:26;78.00;63.00;40.75
85042;PMS7003;75372;51.206;16.144;2024-02-26T00:13:56;73.00;58.25;28.50
85042;PMS7003;75372;51.206;16.144;2024-02-26T00:15:27;82.25;65.50;39.25
85042;PMS7003;75372;51.206;16.144;2024-02-26T00:16:58;82.75;66.75;40.75
85042;PMS7003;75372;51.206;16.144;2024-02-26T00:18:28;89.00;68.75;41.00
85042;PMS7003;75372;51.206;16.144;2024-02-26T00:19:58;87.00;67.75;39.50
85042;PMS7003;75372;51.206;16.144;2024-02-26T00:21:28;86.50;68.50;41.00
85042;PMS7003;75372;51.206;16.144;2024-02-26T00:22:59;76.50;59.75;39.25
85042;PMS7003;75372;51.206;16.144;2024-02-26T00:24:29;93.00;69.75;41.00
85042;PMS7003;75372;51.206;16.144;2024-02-26T00:25:59;75.75;63.50;37.00
85042;PMS7003;75372;51.206;16.144;2024-02-26T00:27:29;94.25;69.50;40.00
85042;PMS7003;75372;51.206;16.144;2024-02-26T00:29:00;87.50;70.50;44.25
85042;PMS7003;75372;51.206;16.144;2024-02-26T00:30:30;95.00;73.00;44.00
85042;PMS7003;75372;51.206;16.144;2024-02-26T00:32:00;89.25;69.75;41.25
85042;PMS7003;75372;51.206;16.144;2024-02-26T00:33:30;87.75;69.00;43.25
85042;PMS7003;75372;51.206;16.144;2024-02-26T00:35:00;91.25;70.25;42.25
85042;PMS7003;75372;51.206;16.144;2024-02-26T00:36:31;87.25;68.00;41.00
85042;PMS7003;75372;51.206;16.144;2024-02-26T00:38:01;84.25;65.00;39.25
85042;PMS7003;75372;51.206;16.144;2024-02-26T00:39:33;86.00;64.50;38.00
85042;PMS7003;75372;51.206;16.144;2024-02-26T00:41:03;83.25;65.75;40.75
85042;PMS7003;75372;51.206;16.144;2024-02-26T00:42:33;78.00;62.25;40.00
85042;PMS7003;75372;51.206;16.144;2024-02-26T00:44:03;86.50;68.25;43.25
85042;PMS7003;75372;51.206;16.144;2024-02-26T00:45:34;94.25;72.75;44.00
85042;PMS7003;75372;51.206;16.144;2024-02-26T00:47:04;97.00;71.75;43.50
85042;PMS7003;75372;51.206;16.144;2024-02-26T00:48:34;89.00;70.50;40.00
85042;PMS7003;75372;51.206;16.144;2024-02-26T00:50:05;88.75;70.00;43.75
85042;PMS7003;75372;51.206;16.144;2024-02-26T00:51:35;88.25;67.50;40.50
85042;PMS7003;75372;51.206;16.144;2024-02-26T00:53:05;88.00;68.75;43.25
85042;PMS7003;75372;51.206;16.144;2024-02-26T00:54:35;79.25;62.25;37.50
85042;PMS7003;75372;51.206;16.144;2024-02-26T00:56:06;76.00;63.75;37.75
85042;PMS7003;75372;51.206;16.144;2024-02-26T00:57:36;76.25;61.50;34.50
85042;PMS7003;75372;51.206;16.144;2024-02-26T00:59:06;76.00;61.75;38.00
85042;PMS7003;75372;51.206;16.144;2024-02-26T01:00:37;71.00;60.00;37.50
85042;PMS7003;75372;51.206;16.144;2024-02-26T01:02:07;70.00;56.75;36.75
85042;PMS7003;75372;51.206;16.144;2024-02-26T01:03:37;71.75;61.00;37.00
85042;PMS7003;75372;51.206;16.144;2024-02-26T01:05:08;72.75;60.75;37.75
85042;PMS7003;75372;51.206;16.144;2024-02-26T01:06:39;72.75;58.75;34.75
85042;PMS7003;75372;51.206;16.144;2024-02-26T01:08:09;45.00;41.50;27.00
85042;PMS7003;75372;51.206;16.144;2024-02-26T01:09:40;79.25;64.00;37.25
85042;PMS7003;75372;51.206;16.144;2024-02-26T01:11:10;76.75;60.50;37.25
85042;PMS7003;75372;51.206;16.144;2024-02-26T01:12:40;72.25;60.00;38.00
85042;PMS7003;75372;51.206;16.144;2024-02-26T01:14:10;71.00;57.67;34.00
85042;PMS7003;75372;51.206;16.144;2024-02-26T01:15:40;74.50;60.75;36.75
85042;PMS7003;75372;51.206;16.144;2024-02-26T01:17:11;67.00;54.00;33.50
85042;PMS7003;75372;51.206;16.144;2024-02-26T01:18:41;68.67;55.33;32.33
85042;PMS7003;75372;51.206;16.144;2024-02-26T01:20:11;69.67;56.00;34.00
85042;PMS7003;75372;51.206;16.144;2024-02-26T01:21:41;60.00;50.67;31.33
85042;PMS7003;75372;51.206;16.144;2024-02-26T01:23:12;62.67;54.00;32.33
85042;PMS7003;75372;51.206;16.144;2024-02-26T01:24:42;67.33;54.33;33.33
85042;PMS7003;75372;51.206;16.144;2024-02-26T01:26:12;67.00;55.33;34.00
85042;PMS7003;75372;51.206;16.144;2024-02-26T01:27:43;63.00;52.67;33.00
85042;PMS7003;75372;51.206;16.144;2024-02-26T01:29:14;60.00;51.00;32.67
85042;PMS7003;75372;51.206;16.144;2024-02-26T01:30:44;57.33;51.00;30.67
85042;PMS7003;75372;51.206;16.144;2024-02-26T01:32:14;27.67;21.00;0.00
85042;PMS7003;75372;51.206;16.144;2024-02-26T01:33:44;61.33;49.67;28.33
85042;PMS7003;75372;51.206;16.144;2024-02-26T01:35:15;68.33;54.00;32.67
85042;PMS7003;75372;51.206;16.144;2024-02-26T01:36:45;63.33;53.33;33.67
85042;PMS7003;75372;51.206;16.144;2024-02-26T01:38:15;62.33;53.00;33.00
85042;PMS7003;75372;51.206;16.144;2024-02-26T01:39:46;70.75;59.75;34.25
85042;PMS7003;75372;51.206;16.144;2024-02-26T01:41:16;69.33;56.33;33.00
85042;PMS7003;75372;51.206;16.144;2024-02-26T01:42:46;72.75;57.00;35.25
85042;PMS7003;75372;51.206;16.144;2024-02-26T01:44:18;66.00;54.25;33.00
85042;PMS7003;75372;51.206;16.144;2024-02-26T01:45:48;63.67;55.00;33.00
85042;PMS7003;75372;51.206;16.144;2024-02-26T01:47:18;65.00;56.33;33.00
85042;PMS7003;75372;51.206;16.144;2024-02-26T01:48:48;64.67;54.67;33.67
85042;PMS7003;75372;51.206;16.144;2024-02-26T01:50:20;66.00;55.00;33.67
85042;PMS7003;75372;51.206;16.144;2024-02-26T01:51:52;67.50;55.50;33.25
85042;PMS7003;75372;51.206;16.144;2024-02-26T01:53:22;65.75;56.25;34.25
85042;PMS7003;75372;51.206;16.144;2024-02-26T01:54:53;68.00;54.75;34.25
85042;PMS7003;75372;51.206;16.144;2024-02-26T01:56:23;67.33;54.33;33.33
85042;PMS7003;75372;51.206;16.144;2024-02-26T01:57:58;75.50;60.50;36.50
85042;PMS7003;75372;51.206;16.144;2024-02-26T01:59:29;74.25;58.50;35.00
85042;PMS7003;75372;51.206;16.144;2024-02-26T02:00:59;68.75;55.00;34.75
85042;PMS7003;75372;51.206;16.144;2024-02-26T02:02:31;71.25;59.50;37.25
85042;PMS7003;75372;51.206;16.144;2024-02-26T02:04:01;69.75;58.00;35.75
85042;PMS7003;75372;51.206;16.144;2024-02-26T02:05:31;78.25;60.00;36.50
85042;PMS7003;75372;51.206;16.144;2024-02-26T02:07:03;74.75;63.00;38.75
85042;PMS7003;75372;51.206;16.144;2024-02-26T02:08:33;85.00;67.25;40.00
85042;PMS7003;75372;51.206;16.144;2024-02-26T02:10:05;77.25;63.00;36.25
85042;PMS7003;75372;51.206;16.144;2024-02-26T02:11:35;71.00;59.25;36.00
85042;PMS7003;75372;51.206;16.144;2024-02-26T02:13:06;72.50;58.25;36.25
85042;PMS7003;75372;51.206;16.144;2024-02-26T02:14:36;75.25;62.00;37.00
85042;PMS7003;75372;51.206;16.144;2024-02-26T02:16:06;77.50;64.75;39.50
85042;PMS7003;75372;51.206;16.144;2024-02-26T02:17:37;73.25;60.75;35.00
85042;PMS7003;75372;51.206;16.144;2024-02-26T02:19:07;74.25;61.25;36.25
85042;PMS7003;75372;51.206;16.144;2024-02-26T02:20:37;75.25;63.00;37.00
85042;PMS7003;75372;51.206;16.144;2024-02-26T02:22:07;76.50;63.00;36.25
85042;PMS7003;75372;51.206;16.144;2024-02-26T02:23:38;74.50;59.50;33.75
85042;PMS7003;75372;51.206;16.144;2024-02-26T02:25:08;74.00;61.75;36.25
85042;PMS7003;75372;51.206;16.144;2024-02-26T02:26:39;68.50;58.00;35.00
85042;PMS7003;75372;51.206;16.144;2024-02-26T02:28:09;68.50;55.75;33.75
85042;PMS7003;75372;51.206;16.144;2024-02-26T02:29:40;70.50;58.25;35.50
85042;PMS7003;75372;51.206;16.144;2024-02-26T02:31:10;71.75;58.00;36.75
85042;PMS7003;75372;51.206;16.144;2024-02-26T02:32:41;68.75;57.25;33.50
85042;PMS7003;75372;51.206;16.144;2024-02-26T02:34:14;63.00;53.00;31.75
85042;PMS7003;75372;51.206;16.144;2024-02-26T02:35:44;54.00;49.50;33.00
85042;PMS7003;75372;51.206;16.144;2024-02-26T02:37:15;68.33;55.33;33.00
85042;PMS7003;75372;51.206;16.144;2024-02-26T02:38:49;65.75;56.25;36.50
85042;PMS7003;75372;51.206;16.144;2024-02-26T02:40:22;67.75;55.50;32.25
85042;PMS7003;75372;51.206;16.144;2024-02-26T02:41:52;66.67;52.00;32.00
85042;PMS7003;75372;51.206;16.144;2024-02-26T02:43:23;60.00;49.75;32.50
85042;PMS7003;75372;51.206;16.144;2024-02-26T02:44:53;75.00;56.75;33.25
85042;PMS7003;75372;51.206;16.144;2024-02-26T02:46:23;69.75;52.00;32.25
85042;PMS7003;75372;51.206;16.144;2024-02-26T02:47:53;68.50;55.50;32.50
85042;PMS7003;75372;51.206;16.144;2024-02-26T02:49:23;65.00;53.00;34.25
85042;PMS7003;75372;51.206;16.144;2024-02-26T02:50:54;63.75;52.50;33.25
85042;PMS7003;75372;51.206;16.144;2024-02-26T02:52:24;67.00;57.50;32.25
85042;PMS7003;75372;51.206;16.144;2024-02-26T02:53:54;68.00;53.33;32.00
85042;PMS7003;75372;51.206;16.144;2024-02-26T02:55:24;66.25;57.00;35.00
85042;PMS7003;75372;51.206;16.144;2024-02-26T02:56:55;64.50;52.25;32.75
85042;PMS7003;75372;51.206;16.144;2024-02-26T02:58:25;70.00;58.50;38.00
85042;PMS7003;75372;51.206;16.144;2024-02-26T02:59:55;68.25;55.75;35.75
85042;PMS7003;75372;51.206;16.144;2024-02-26T03:01:25;60.50;53.00;34.75
85042;PMS7003;75372;51.206;16.144;2024-02-26T03:02:55;73.00;56.50;32.00
85042;PMS7003;75372;51.206;16.144;2024-02-26T03:04:26;66.25;54.00;32.25
85042;PMS7003;75372;51.206;16.144;2024-02-26T03:05:56;67.75;57.25;35.00
85042;PMS7003;75372;51.206;16.144;2024-02-26T03:07:26;68.00;52.75;33.25
85042;PMS7003;75372;51.206;16.144;2024-02-26T03:08:56;57.25;51.00;30.25
85042;PMS7003;75372;51.206;16.144;2024-02-26T03:10:26;76.50;61.00;37.25
85042;PMS7003;75372;51.206;16.144;2024-02-26T03:11:57;69.50;58.00;34.75
85042;PMS7003;75372;51.206;16.144;2024-02-26T03:13:27;72.75;58.00;37.50
85042;PMS7003;75372;51.206;16.144;2024-02-26T03:14:57;76.00;64.25;39.50
85042;PMS7003;75372;51.206;16.144;2024-02-26T03:16:27;74.75;61.25;38.50
85042;PMS7003;75372;51.206;16.144;2024-02-26T03:17:58;71.75;56.50;35.25
85042;PMS7003;75372;51.206;16.144;2024-02-26T03:19:28;83.25;64.75;40.75
85042;PMS7003;75372;51.206;16.144;2024-02-26T03:20:58;86.75;69.00;42.75
85042;PMS7003;75372;51.206;16.144;2024-02-26T03:22:28;76.00;63.50;38.50
85042;PMS7003;75372;51.206;16.144;2024-02-26T03:23:59;73.25;60.00;34.50
85042;PMS7003;75372;51.206;16.144;2024-02-26T03:25:29;74.25;59.00;38.50
85042;PMS7003;75372;51.206;16.144;2024-02-26T03:26:59;79.25;64.00;41.00
85042;PMS7003;75372;51.206;16.144;2024-02-26T03:28:29;69.75;57.25;32.00
85042;PMS7003;75372;51.206;16.144;2024-02-26T03:30:01;88.75;67.75;41.00
85042;PMS7003;75372;51.206;16.144;2024-02-26T03:31:32;84.00;66.75;40.75
85042;PMS7003;75372;51.206;16.144;2024-02-26T03:33:02;83.00;66.00;40.25
85042;PMS7003;75372;51.206;16.144;2024-02-26T03:34:33;82.25;66.25;41.00
85042;PMS7003;75372;51.206;16.144;2024-02-26T03:36:06;79.25;65.75;40.50
85042;PMS7003;75372;51.206;16.144;2024-02-26T03:37:37;76.25;63.50;37.75
85042;PMS7003;75372;51.206;16.144;2024-02-26T03:39:07;84.25;65.25;39.25
85042;PMS7003;75372;51.206;16.144;2024-02-26T03:40:38;81.00;65.25;40.75
85042;PMS7003;75372;51.206;16.144;2024-02-26T03:42:08;82.25;65.75;39.25
85042;PMS7003;75372;51.206;16.144;2024-02-26T03:43:38;73.00;62.75;38.00
85042;PMS7003;75372;51.206;16.144;2024-02-26T03:45:08;79.00;62.75;35.25
85042;PMS7003;75372;51.206;16.144;2024-02-26T03:46:39;80.50;65.25;40.50
85042;PMS7003;75372;51.206;16.144;2024-02-26T03:48:09;82.50;67.25;40.00
85042;PMS7003;75372;51.206;16.144;2024-02-26T03:49:39;84.75;67.50;41.00
85042;PMS7003;75372;51.206;16.144;2024-02-26T03:51:10;84.25;68.25;40.75
85042;PMS7003;75372;51.206;16.144;2024-02-26T03:52:40;83.25;63.75;39.25
85042;PMS7003;75372;51.206;16.144;2024-02-26T03:54:10;77.00;59.00;38.50
85042;PMS7003;75372;51.206;16.144;2024-02-26T03:55:41;83.00;68.50;39.25
85042;PMS7003;75372;51.206;16.144;2024-02-26T03:57:12;78.25;64.25;39.00
85042;PMS7003;75372;51.206;16.144;2024-02-26T03:58:42;84.75;67.75;39.50
85042;PMS7003;75372;51.206;16.144;2024-02-26T04:00:12;85.50;66.00;38.75
85042;PMS7003;75372;51.206;16.144;2024-02-26T04:01:45;78.25;62.00;39.25
85042;PMS7003;75372;51.206;16.144;2024-02-26T04:03:17;78.75;64.25;38.25
85042;PMS7003;75372;51.206;16.144;2024-02-26T04:04:47;79.50;64.75;40.75
85042;PMS7003;75372;51.206;16.144;2024-02-26T04:06:17;75.50;61.75;39.50
85042;PMS7003;75372;51.206;16.144;2024-02-26T04:07:49;82.50;65.50;40.00
85042;PMS7003;75372;51.206;16.144;2024-02-26T04:09:19;77.00;61.75;35.00
85042;PMS7003;75372;51.206;16.144;2024-02-26T04:10:50;80.50;64.00;40.50
85042;PMS7003;75372;51.206;16.144;2024-02-26T04:12:20;86.25;67.25;41.00
85042;PMS7003;75372;51.206;16.144;2024-02-26T04:13:50;80.00;65.25;39.00
85042;PMS7003;75372;51.206;16.144;2024-02-26T04:15:22;76.25;63.25;38.00
85042;PMS7003;75372;51.206;16.144;2024-02-26T04:16:52;85.75;64.25;39.75
85042;PMS7003;75372;51.206;16.144;2024-02-26T04:18:24;81.25;65.50;38.75
85042;PMS7003;75372;51.206;16.144;2024-02-26T04:19:54;77.50;61.00;38.25
85042;PMS7003;75372;51.206;16.144;2024-02-26T04:21:24;80.25;64.50;40.25
85042;PMS7003;75372;51.206;16.144;2024-02-26T04:22:55;78.25;63.50;39.25
85042;PMS7003;75372;51.206;16.144;2024-02-26T04:24:25;74.50;60.50;39.75
85042;PMS7003;75372;51.206;16.144;2024-02-26T04:25:55;91.00;72.00;45.25
85042;PMS7003;75372;51.206;16.144;2024-02-26T04:27:25;88.50;70.75;42.25
85042;PMS7003;75372;51.206;16.144;2024-02-26T04:28:56;81.25;67.75;42.25
85042;PMS7003;75372;51.206;16.144;2024-02-26T04:30:26;82.50;66.25;41.00
85042;PMS7003;75372;51.206;16.144;2024-02-26T04:31:56;79.00;62.00;39.25
85042;PMS7003;75372;51.206;16.144;2024-02-26T04:33:26;77.25;63.50;38.75
85042;PMS7003;75372;51.206;16.144;2024-02-26T04:34:57;84.50;67.50;41.00
85042;PMS7003;75372;51.206;16.144;2024-02-26T04:36:27;85.00;69.75;42.25
85042;PMS7003;75372;51.206;16.144;2024-02-26T04:37:57;83.75;65.25;41.00
85042;PMS7003;75372;51.206;16.144;2024-02-26T04:39:27;84.25;67.50;41.00
85042;PMS7003;75372;51.206;16.144;2024-02-26T04:40:58;84.75;66.75;41.75
85042;PMS7003;75372;51.206;16.144;2024-02-26T04:42:28;80.75;65.50;41.00
85042;PMS7003;75372;51.206;16.144;2024-02-26T04:43:58;81.25;65.25;41.00
85042;PMS7003;75372;51.206;16.144;2024-02-26T04:45:28;76.75;64.25;39.75
85042;PMS7003;75372;51.206;16.144;2024-02-26T04:46:58;71.00;56.00;27.25
85042;PMS7003;75372;51.206;16.144;2024-02-26T04:48:29;84.00;69.75;42.25
85042;PMS7003;75372;51.206;16.144;2024-02-26T04:49:59;72.75;60.25;38.50
85042;PMS7003;75372;51.206;16.144;2024-02-26T04:51:29;81.25;66.00;41.25
85042;PMS7003;75372;51.206;16.144;2024-02-26T04:52:59;75.00;61.25;38.50
85042;PMS7003;75372;51.206;16.144;2024-02-26T04:54:29;76.50;64.50;41.50
85042;PMS7003;75372;51.206;16.144;2024-02-26T04:56:00;71.25;57.25;39.75
85042;PMS7003;75372;51.206;16.144;2024-02-26T04:57:30;86.75;69.25;43.25
85042;PMS7003;75372;51.206;16.144;2024-02-26T04:59:00;84.50;68.25;42.25
85042;PMS7003;75372;51.206;16.144;2024-02-26T05:00:30;86.00;66.00;39.75
85042;PMS7003;75372;51.206;16.144;2024-02-26T05:02:01;84.00;66.00;40.75
85042;PMS7003;75372;51.206;16.144;2024-02-26T05:03:31;76.25;60.25;31.00
85042;PMS7003;75372;51.206;16.144;2024-02-26T05:05:01;87.75;69.50;43.75
85042;PMS7003;75372;51.206;16.144;2024-02-26T05:06:32;84.75;67.00;41.00
85042;PMS7003;75372;51.206;16.144;2024-02-26T05:08:02;83.75;68.00;43.75
85042;PMS7003;75372;51.206;16.144;2024-02-26T05:09:33;83.25;68.00;43.75
85042;PMS7003;75372;51.206;16.144;2024-02-26T05:11:04;85.25;68.50;41.25
85042;PMS7003;75372;51.206;16.144;2024-02-26T05:12:34;82.25;67.75;41.50
85042;PMS7003;75372;51.206;16.144;2024-02-26T05:14:05;87.75;69.75;41.75
85042;PMS7003;75372;51.206;16.144;2024-02-26T05:15:36;87.75;70.25;44.00
85042;PMS7003;75372;51.206;16.144;2024-02-26T05:17:06;99.25;74.25;45.00
85042;PMS7003;75372;51.206;16.144;2024-02-26T05:18:36;103.00;76.75;46.00
85042;PMS7003;75372;51.206;16.144;2024-02-26T05:20:06;91.75;73.25;44.00
85042;PMS7003;75372;51.206;16.144;2024-02-26T05:21:37;84.00;68.50;44.00
85042;PMS7003;75372;51.206;16.144;2024-02-26T05:23:08;89.75;70.25;43.25
85042;PMS7003;75372;51.206;16.144;2024-02-26T05:24:39;88.75;69.50;41.50
85042;PMS7003;75372;51.206;16.144;2024-02-26T05:26:09;81.75;66.50;41.50
85042;PMS7003;75372;51.206;16.144;2024-02-26T05:27:39;88.50;69.25;41.75
85042;PMS7003;75372;51.206;16.144;2024-02-26T05:29:10;82.00;63.00;37.75
85042;PMS7003;75372;51.206;16.144;2024-02-26T05:30:40;80.75;65.75;41.00
85042;PMS7003;75372;51.206;16.144;2024-02-26T05:32:10;84.25;68.50;41.75
85042;PMS7003;75372;51.206;16.144;2024-02-26T05:33:40;87.75;66.75;40.00
85042;PMS7003;75372;51.206;16.144;2024-02-26T05:35:10;82.25;66.50;41.25
85042;PMS7003;75372;51.206;16.144;2024-02-26T05:36:41;88.25;68.75;41.00
85042;PMS7003;75372;51.206;16.144;2024-02-26T05:38:11;81.75;66.00;42.00
85042;PMS7003;75372;51.206;16.144;2024-02-26T05:39:41;76.00;64.00;39.75
85042;PMS7003;75372;51.206;16.144;2024-02-26T05:41:12;76.00;61.50;38.00
85042;PMS7003;75372;51.206;16.144;2024-02-26T05:42:42;72.00;60.75;35.50
85042;PMS7003;75372;51.206;16.144;2024-02-26T05:44:14;79.50;64.00;38.75
85042;PMS7003;75372;51.206;16.144;2024-02-26T05:45:46;81.00;65.25;42.25
85042;PMS7003;75372;51.206;16.144;2024-02-26T05:47:16;81.50;64.75;37.50
85042;PMS7003;75372;51.206;16.144;2024-02-26T05:48:47;76.75;63.75;40.75
85042;PMS7003;75372;51.206;16.144;2024-02-26T05:50:18;78.75;64.00;41.00
85042;PMS7003;75372;51.206;16.144;2024-02-26T05:51:48;85.25;65.50;41.25
85042;PMS7003;75372;51.206;16.144;2024-02-26T05:53:18;80.50;66.50;41.00
85042;PMS7003;75372;51.206;16.144;2024-02-26T05:54:48;81.75;64.25;40.50
85042;PMS7003;75372;51.206;16.144;2024-02-26T05:56:19;77.00;63.75;40.75
85042;PMS7003;75372;51.206;16.144;2024-02-26T05:57:49;84.25;70.00;43.75
85042;PMS7003;75372;51.206;16.144;2024-02-26T05:59:19;86.00;67.75;41.00
85042;PMS7003;75372;51.206;16.144;2024-02-26T06:00:50;83.75;67.75;41.00
85042;PMS7003;75372;51.206;16.144;2024-02-26T06:02:20;87.00;67.75;41.25
85042;PMS7003;75372;51.206;16.144;2024-02-26T06:03:50;81.75;64.25;41.00
85042;PMS7003;75372;51.206;16.144;2024-02-26T06:05:20;83.50;68.00;42.25
85042;PMS7003;75372;51.206;16.144;2024-02-26T06:06:50;91.50;70.75;45.25
85042;PMS7003;75372;51.206;16.144;2024-02-26T06:08:21;87.75;68.25;40.25
85042;PMS7003;75372;51.206;16.144;2024-02-26T06:09:52;83.00;67.25;41.00
85042;PMS7003;75372;51.206;16.144;2024-02-26T06:11:22;78.00;63.50;40.25
85042;PMS7003;75372;51.206;16.144;2024-02-26T06:12:52;83.00;67.00;41.50
85042;PMS7003;75372;51.206;16.144;2024-02-26T06:14:23;91.75;72.75;44.50
85042;PMS7003;75372;51.206;16.144;2024-02-26T06:15:53;79.00;65.25;39.00
85042;PMS7003;75372;51.206;16.144;2024-02-26T06:17:23;84.25;67.25;42.00
85042;PMS7003;75372;51.206;16.144;2024-02-26T06:18:53;82.00;65.75;39.25
85042;PMS7003;75372;51.206;16.144;2024-02-26T06:20:24;77.25;62.75;38.25
85042;PMS7003;75372;51.206;16.144;2024-02-26T06:21:54;80.00;65.75;41.00
85042;PMS7003;75372;51.206;16.144;2024-02-26T06:23:24;90.25;68.00;40.50
85042;PMS7003;75372;51.206;16.144;2024-02-26T06:24:54;78.50;65.50;42.00
85042;PMS7003;75372;51.206;16.144;2024-02-26T06:26:25;75.25;59.50;37.50
85042;PMS7003;75372;51.206;16.144;2024-02-26T06:27:58;81.00;67.50;40.50
85042;PMS7003;75372;51.206;16.144;2024-02-26T06:29:28;66.75;52.75;27.00
85042;PMS7003;75372;51.206;16.144;2024-02-26T06:30:59;83.50;67.00;40.25
85042;PMS7003;75372;51.206;16.144;2024-02-26T06:32:29;80.50;65.00;39.00
85042;PMS7003;75372;51.206;16.144;2024-02-26T06:33:59;81.00;66.00;40.25
85042;PMS7003;75372;51.206;16.144;2024-02-26T06:35:29;77.25;63.75;40.00
85042;PMS7003;75372;51.206;16.144;2024-02-26T06:37:00;84.50;68.25;40.25
85042;PMS7003;75372;51.206;16.144;2024-02-26T06:38:30;81.00;66.25;41.25
85042;PMS7003;75372;51.206;16.144;2024-02-26T06:40:00;80.00;66.25;38.25
85042;PMS7003;75372;51.206;16.144;2024-02-26T06:41:33;85.00;68.75;42.75
85042;PMS7003;75372;51.206;16.144;2024-02-26T06:43:04;87.25;68.75;42.00
85042;PMS7003;75372;51.206;16.144;2024-02-26T06:44:34;87.75;67.00;41.25
85042;PMS7003;75372;51.206;16.144;2024-02-26T06:46:05;84.00;68.50;42.00
85042;PMS7003;75372;51.206;16.144;2024-02-26T06:47:35;83.75;69.50;43.00
85042;PMS7003;75372;51.206;16.144;2024-02-26T06:49:06;89.25;71.75;43.00
85042;PMS7003;75372;51.206;16.144;2024-02-26T06:50:36;90.75;70.50;43.75
85042;PMS7003;75372;51.206;16.144;2024-02-26T06:52:06;80.75;66.75;41.50
85042;PMS7003;75372;51.206;16.144;2024-02-26T06:53:36;79.50;64.25;40.00
85042;PMS7003;75372;51.206;16.144;2024-02-26T06:55:07;93.25;72.25;43.50
85042;PMS7003;75372;51.206;16.144;2024-02-26T06:56:38;87.50;68.75;43.00
85042;PMS7003;75372;51.206;16.144;2024-02-26T06:58:08;91.75;72.75;45.50
85042;PMS7003;75372;51.206;16.144;2024-02-26T06:59:39;91.75;70.50;44.25
85042;PMS7003;75372;51.206;16.144;2024-02-26T07:01:11;90.00;70.50;44.00
85042;PMS7003;75372;51.206;16.144;2024-02-26T07:02:42;89.25;72.25;44.25
85042;PMS7003;75372;51.206;16.144;2024-02-26T07:04:12;91.25;70.75;44.00
85042;PMS7003;75372;51.206;16.144;2024-02-26T07:05:42;91.25;71.50;44.00
85042;PMS7003;75372;51.206;16.144;2024-02-26T07:07:15;95.75;76.75;46.50
85042;PMS7003;75372;51.206;16.144;2024-02-26T07:08:47;95.00;72.75;43.50
85042;PMS7003;75372;51.206;16.144;2024-02-26T07:10:18;90.25;72.50;44.00
85042;PMS7003;75372;51.206;16.144;2024-02-26T07:11:48;92.25;71.00;45.25
85042;PMS7003;75372;51.206;16.144;2024-02-26T07:13:18;89.00;68.50;41.00
85042;PMS7003;75372;51.206;16.144;2024-02-26T07:14:49;85.00;69.50;44.00
85042;PMS7003;75372;51.206;16.144;2024-02-26T07:16:20;85.00;69.00;42.00
85042;PMS7003;75372;51.206;16.144;2024-02-26T07:17:50;89.75;67.75;42.00
85042;PMS7003;75372;51.206;16.144;2024-02-26T07:19:20;89.50;71.75;44.00
85042;PMS7003;75372;51.206;16.144;2024-02-26T07:20:50;87.00;70.25;44.00
85042;PMS7003;75372;51.206;16.144;2024-02-26T07:22:20;91.25;71.00;45.25
85042;PMS7003;75372;51.206;16.144;2024-02-26T07:23:52;85.50;68.00;41.25
85042;PMS7003;75372;51.206;16.144;2024-02-26T07:25:22;78.00;65.00;43.75
85042;PMS7003;75372;51.206;16.144;2024-02-26T07:26:54;95.00;72.50;43.50
85042;PMS7003;75372;51.206;16.144;2024-02-26T07:28:27;87.50;72.25;44.25
85042;PMS7003;75372;51.206;16.144;2024-02-26T07:29:57;92.75;72.75;44.25
85042;PMS7003;75372;51.206;16.144;2024-02-26T07:31:27;88.00;68.50;43.50
85042;PMS7003;75372;51.206;16.144;2024-02-26T07:32:57;90.25;71.75;44.75
85042;PMS7003;75372;51.206;16.144;2024-02-26T07:34:28;88.75;70.25;43.25
85042;PMS7003;75372;51.206;16.144;2024-02-26T07:35:59;80.25;68.00;43.25
85042;PMS7003;75372;51.206;16.144;2024-02-26T07:37:29;87.25;71.75;44.00
85042;PMS7003;75372;51.206;16.144;2024-02-26T07:38:59;86.25;70.50;42.75
85042;PMS7003;75372;51.206;16.144;2024-02-26T07:40:31;89.75;72.75;43.25
85042;PMS7003;75372;51.206;16.144;2024-02-26T07:42:01;88.25;67.25;43.00
85042;PMS7003;75372;51.206;16.144;2024-02-26T07:43:31;89.50;68.75;43.00
85042;PMS7003;75372;51.206;16.144;2024-02-26T07:45:02;85.50;70.00;43.50
85042;PMS7003;75372;51.206;16.144;2024-02-26T07:46:32;84.25;65.50;39.25
85042;PMS7003;75372;51.206;16.144;2024-02-26T07:48:02;74.25;61.25;36.50
85042;PMS7003;75372;51.206;16.144;2024-02-26T07:49:32;82.00;66.50;42.75
85042;PMS7003;75372;51.206;16.144;2024-02-26T07:51:03;86.50;70.75;43.00
85042;PMS7003;75372;51.206;16.144;2024-02-26T07:52:34;85.50;66.50;42.50
85042;PMS7003;75372;51.206;16.144;2024-02-26T07:54:04;84.50;66.75;41.25
85042;PMS7003;75372;51.206;16.144;2024-02-26T07:55:34;85.50;69.50;41.50
85042;PMS7003;75372;51.206;16.144;2024-02-26T07:57:05;81.50;61.75;38.25
85042;PMS7003;75372;51.206;16.144;2024-02-26T07:58:36;80.75;63.00;38.75
85042;PMS7003;75372;51.206;16.144;2024-02-26T08:00:06;79.75;65.25;37.75
85042;PMS7003;75372;51.206;16.144;2024-02-26T08:01:39;83.75;65.00;42.25
85042;PMS7003;75372;51.206;16.144;2024-02-26T08:03:11;77.67;63.33;40.67
85042;PMS7003;75372;51.206;16.144;2024-02-26T08:04:43;83.00;65.75;40.25
85042;PMS7003;75372;51.206;16.144;2024-02-26T08:06:13;76.33;63.00;39.67
85042;PMS7003;75372;51.206;16.144;2024-02-26T08:07:43;84.00;64.67;38.00
85042;PMS7003;75372;51.206;16.144;2024-02-26T08:09:13;77.67;63.00;37.67
85042;PMS7003;75372;51.206;16.144;2024-02-26T08:10:44;81.67;65.00;39.33
85042;PMS7003;75372;51.206;16.144;2024-02-26T08:12:14;67.67;57.33;37.00
85042;PMS7003;75372;51.206;16.144;2024-02-26T08:13:44;72.33;59.00;37.00
85042;PMS7003;75372;51.206;16.144;2024-02-26T08:15:14;71.00;60.00;38.00
85042;PMS7003;75372;51.206;16.144;2024-02-26T08:16:44;76.67;62.00;38.33
85042;PMS7003;75372;51.206;16.144;2024-02-26T08:18:15;75.33;61.33;38.00
85042;PMS7003;75372;51.206;16.144;2024-02-26T08:19:46;74.00;60.00;39.00